DABB/AAE METAR and TAF weather

Enter ICAO airport designator
Station Type Date Time Source
DABB METAR 2020/02/26 09:00 UTC NOAA

DABB 260900Z 23008KT 9999 FEW023 BKN200 15/10 Q1015


Station Type Date Time Source
DABB Decoded METAR 2020/02/26 09:00 UTC NOAA

Annaba, Algeria (DABB) 36-50N 007-49E 4M
Feb 26, 2020 - 04:00 AM EST / 2020.02.26 0900 UTC
Wind: from the SW (230 degrees) at 9 MPH (8 KT):0
Visibility: greater than 7 mile(s):0
Sky conditions: mostly cloudy
Temperature: 59 F (15 C)
Dew Point: 50 F (10 C)
Relative Humidity: 72%
Pressure (altimeter): 29.97 in. Hg (1015 hPa)
ob: DABB 260900Z 23008KT 9999 FEW023 BKN200 15/10 Q1015
cycle: 9

Station Type Date Time Source
DABB TAF 2020/02/26 06:33 UTC NOAA

TAF DABB 260500Z 2606/2706 19008KT 9999 FEW023 SCT030
BECMG 2610/2612 30014KT
BECMG 2618/2620 21008KT

Example: see airport list